sensor_id;sensor_type;location;lat;lon;timestamp;temperature;humidity
19435;DHT22;9853;50.848;4.108;2022-09-24T00:00:34;15.20;99.90
19435;DHT22;9853;50.848;4.108;2022-09-24T00:02:35;15.20;99.90
19435;DHT22;9853;50.848;4.108;2022-09-24T00:04:36;15.20;99.90
19435;DHT22;9853;50.848;4.108;2022-09-24T00:06:42;15.20;99.90
19435;DHT22;9853;50.848;4.108;2022-09-24T00:08:45;15.30;99.90
19435;DHT22;9853;50.848;4.108;2022-09-24T00:10:46;15.30;99.90
19435;DHT22;9853;50.848;4.108;2022-09-24T00:12:48;15.30;99.90
19435;DHT22;9853;50.848;4.108;2022-09-24T00:14:49;15.20;99.90
19435;DHT22;9853;50.848;4.108;2022-09-24T00:16:49;15.10;99.90
19435;DHT22;9853;50.848;4.108;2022-09-24T00:18:50;15.20;99.90
19435;DHT22;9853;50.848;4.108;2022-09-24T00:20:51;15.20;99.90
19435;DHT22;9853;50.848;4.108;2022-09-24T00:22:52;15.20;99.90
19435;DHT22;9853;50.848;4.108;2022-09-24T00:24:53;15.10;99.90
19435;DHT22;9853;50.848;4.108;2022-09-24T00:27:12;15.20;99.90
19435;DHT22;9853;50.848;4.108;2022-09-24T00:29:22;15.20;99.90
19435;DHT22;9853;50.848;4.108;2022-09-24T00:31:24;15.00;99.90
19435;DHT22;9853;50.848;4.108;2022-09-24T00:33:26;15.10;99.90
19435;DHT22;9853;50.848;4.108;2022-09-24T00:35:29;15.00;99.90
19435;DHT22;9853;50.848;4.108;2022-09-24T00:37:30;14.90;99.90
19435;DHT22;9853;50.848;4.108;2022-09-24T00:39:31;15.00;99.90
19435;DHT22;9853;50.848;4.108;2022-09-24T00:41:35;15.00;99.90
19435;DHT22;9853;50.848;4.108;2022-09-24T00:43:37;14.90;99.90
19435;DHT22;9853;50.848;4.108;2022-09-24T00:45:38;14.80;99.90
19435;DHT22;9853;50.848;4.108;2022-09-24T00:47:40;14.80;99.90
19435;DHT22;9853;50.848;4.108;2022-09-24T00:49:41;14.80;99.90
19435;DHT22;9853;50.848;4.108;2022-09-24T00:51:45;14.80;99.90
19435;DHT22;9853;50.848;4.108;2022-09-24T00:53:49;14.70;99.90
19435;DHT22;9853;50.848;4.108;2022-09-24T00:55:52;14.80;99.90
19435;DHT22;9853;50.848;4.108;2022-09-24T00:57:58;14.80;99.90
19435;DHT22;9853;50.848;4.108;2022-09-24T00:59:59;14.80;99.90
19435;DHT22;9853;50.848;4.108;2022-09-24T01:02:00;14.80;99.90
19435;DHT22;9853;50.848;4.108;2022-09-24T01:04:04;14.90;99.90
19435;DHT22;9853;50.848;4.108;2022-09-24T01:06:08;14.90;99.90
19435;DHT22;9853;50.848;4.108;2022-09-24T01:08:13;14.80;99.90
19435;DHT22;9853;50.848;4.108;2022-09-24T01:10:15;14.80;99.90
19435;DHT22;9853;50.848;4.108;2022-09-24T01:12:44;14.80;99.90
19435;DHT22;9853;50.848;4.108;2022-09-24T01:19:39;14.70;99.90
19435;DHT22;9853;50.848;4.108;2022-09-24T01:21:50;14.80;99.90
19435;DHT22;9853;50.848;4.108;2022-09-24T01:30:30;14.80;99.90
19435;DHT22;9853;50.848;4.108;2022-09-24T01:32:49;14.80;99.90
19435;DHT22;9853;50.848;4.108;2022-09-24T01:34:56;14.80;99.90
19435;DHT22;9853;50.848;4.108;2022-09-24T01:36:58;14.80;99.90
19435;DHT22;9853;50.848;4.108;2022-09-24T01:39:00;14.90;99.90
19435;DHT22;9853;50.848;4.108;2022-09-24T01:41:03;14.80;99.90
19435;DHT22;9853;50.848;4.108;2022-09-24T01:43:07;14.90;99.90
19435;DHT22;9853;50.848;4.108;2022-09-24T01:45:10;15.00;99.90
19435;DHT22;9853;50.848;4.108;2022-09-24T01:47:34;14.90;99.90
19435;DHT22;9853;50.848;4.108;2022-09-24T01:49:39;15.00;99.90
19435;DHT22;9853;50.848;4.108;2022-09-24T01:51:56;15.00;99.90
19435;DHT22;9853;50.848;4.108;2022-09-24T01:54:02;15.00;99.90
19435;DHT22;9853;50.848;4.108;2022-09-24T01:56:16;14.90;99.90
19435;DHT22;9853;50.848;4.108;2022-09-24T01:58:24;15.00;99.90
19435;DHT22;9853;50.848;4.108;2022-09-24T02:00:27;15.00;99.90
19435;DHT22;9853;50.848;4.108;2022-09-24T02:02:35;14.90;99.90
19435;DHT22;9853;50.848;4.108;2022-09-24T02:04:42;15.00;99.90
19435;DHT22;9853;50.848;4.108;2022-09-24T02:06:48;15.00;99.90
19435;DHT22;9853;50.848;4.108;2022-09-24T02:08:50;14.90;99.90
19435;DHT22;9853;50.848;4.108;2022-09-24T02:13:06;15.00;99.90
19435;DHT22;9853;50.848;4.108;2022-09-24T02:15:18;15.00;99.90
19435;DHT22;9853;50.848;4.108;2022-09-24T02:17:25;14.90;99.90
19435;DHT22;9853;50.848;4.108;2022-09-24T02:19:28;14.90;99.90
19435;DHT22;9853;50.848;4.108;2022-09-24T02:21:31;14.90;99.90
19435;DHT22;9853;50.848;4.108;2022-09-24T02:23:36;15.00;99.90
19435;DHT22;9853;50.848;4.108;2022-09-24T02:25:47;14.90;99.90
19435;DHT22;9853;50.848;4.108;2022-09-24T02:27:50;14.90;99.90
19435;DHT22;9853;50.848;4.108;2022-09-24T02:29:50;14.90;99.90
19435;DHT22;9853;50.848;4.108;2022-09-24T02:31:54;14.90;99.90
19435;DHT22;9853;50.848;4.108;2022-09-24T02:33:57;14.90;99.90
19435;DHT22;9853;50.848;4.108;2022-09-24T02:36:19;14.90;99.90
19435;DHT22;9853;50.848;4.108;2022-09-24T02:38:24;14.80;99.90
19435;DHT22;9853;50.848;4.108;2022-09-24T02:40:25;14.80;99.90
19435;DHT22;9853;50.848;4.108;2022-09-24T02:42:25;14.80;99.90
19435;DHT22;9853;50.848;4.108;2022-09-24T02:44:26;14.90;99.90
19435;DHT22;9853;50.848;4.108;2022-09-24T02:46:30;14.90;99.90
19435;DHT22;9853;50.848;4.108;2022-09-24T02:48:31;15.00;99.90
19435;DHT22;9853;50.848;4.108;2022-09-24T02:50:31;15.00;99.90
19435;DHT22;9853;50.848;4.108;2022-09-24T02:52:32;15.00;99.90
19435;DHT22;9853;50.848;4.108;2022-09-24T02:54:33;14.90;99.90
19435;DHT22;9853;50.848;4.108;2022-09-24T02:56:34;14.80;99.90
19435;DHT22;9853;50.848;4.108;2022-09-24T02:58:35;14.80;99.90
19435;DHT22;9853;50.848;4.108;2022-09-24T03:00:36;14.80;99.90
19435;DHT22;9853;50.848;4.108;2022-09-24T03:02:37;14.70;99.90
19435;DHT22;9853;50.848;4.108;2022-09-24T03:04:38;14.70;99.90
19435;DHT22;9853;50.848;4.108;2022-09-24T03:06:38;14.70;99.90
19435;DHT22;9853;50.848;4.108;2022-09-24T03:08:42;14.80;99.90
19435;DHT22;9853;50.848;4.108;2022-09-24T03:10:43;14.80;99.90
19435;DHT22;9853;50.848;4.108;2022-09-24T03:12:44;14.70;99.90
19435;DHT22;9853;50.848;4.108;2022-09-24T03:14:45;14.70;99.90
19435;DHT22;9853;50.848;4.108;2022-09-24T03:16:46;14.80;99.90
19435;DHT22;9853;50.848;4.108;2022-09-24T03:18:46;14.70;99.90
19435;DHT22;9853;50.848;4.108;2022-09-24T03:20:57;14.80;99.90
19435;DHT22;9853;50.848;4.108;2022-09-24T03:22:58;14.90;99.90
19435;DHT22;9853;50.848;4.108;2022-09-24T03:24:59;14.80;99.90
19435;DHT22;9853;50.848;4.108;2022-09-24T03:27:02;14.80;99.90
19435;DHT22;9853;50.848;4.108;2022-09-24T03:29:03;14.80;99.90
19435;DHT22;9853;50.848;4.108;2022-09-24T03:31:04;14.80;99.90
19435;DHT22;9853;50.848;4.108;2022-09-24T03:33:05;14.70;99.90
19435;DHT22;9853;50.848;4.108;2022-09-24T03:35:06;14.80;99.90
19435;DHT22;9853;50.848;4.108;2022-09-24T03:37:07;14.80;99.90
19435;DHT22;9853;50.848;4.108;2022-09-24T03:39:08;14.70;99.90
19435;DHT22;9853;50.848;4.108;2022-09-24T03:41:10;14.80;99.90
19435;DHT22;9853;50.848;4.108;2022-09-24T03:43:11;14.70;99.90
19435;DHT22;9853;50.848;4.108;2022-09-24T03:45:11;14.70;99.90
19435;DHT22;9853;50.848;4.108;2022-09-24T03:47:12;14.70;99.90
19435;DHT22;9853;50.848;4.108;2022-09-24T03:49:13;14.70;99.90
19435;DHT22;9853;50.848;4.108;2022-09-24T03:51:16;14.70;99.90
19435;DHT22;9853;50.848;4.108;2022-09-24T03:53:19;14.70;99.90
19435;DHT22;9853;50.848;4.108;2022-09-24T03:55:19;14.60;99.90
19435;DHT22;9853;50.848;4.108;2022-09-24T03:57:21;14.50;99.90
19435;DHT22;9853;50.848;4.108;2022-09-24T03:59:21;14.60;99.90
19435;DHT22;9853;50.848;4.108;2022-09-24T04:01:22;14.60;99.90
19435;DHT22;9853;50.848;4.108;2022-09-24T04:03:23;14.50;99.90
19435;DHT22;9853;50.848;4.108;2022-09-24T04:05:24;14.50;99.90
19435;DHT22;9853;50.848;4.108;2022-09-24T04:07:24;14.40;99.90
19435;DHT22;9853;50.848;4.108;2022-09-24T04:09:26;14.40;99.90
19435;DHT22;9853;50.848;4.108;2022-09-24T04:11:26;14.50;99.90
19435;DHT22;9853;50.848;4.108;2022-09-24T04:13:27;14.50;99.90
19435;DHT22;9853;50.848;4.108;2022-09-24T04:15:28;14.50;99.90
19435;DHT22;9853;50.848;4.108;2022-09-24T04:17:29;14.60;99.90
19435;DHT22;9853;50.848;4.108;2022-09-24T04:19:32;14.60;99.90
19435;DHT22;9853;50.848;4.108;2022-09-24T04:21:33;14.60;99.90
19435;DHT22;9853;50.848;4.108;2022-09-24T04:23:34;14.60;99.90
19435;DHT22;9853;50.848;4.108;2022-09-24T04:25:34;14.60;99.90
19435;DHT22;9853;50.848;4.108;2022-09-24T04:27:35;14.50;99.90
19435;DHT22;9853;50.848;4.108;2022-09-24T04:29:36;14.60;99.90
19435;DHT22;9853;50.848;4.108;2022-09-24T04:31:36;14.60;99.90
19435;DHT22;9853;50.848;4.108;2022-09-24T04:33:38;14.60;99.90
19435;DHT22;9853;50.848;4.108;2022-09-24T04:35:40;14.60;99.90
19435;DHT22;9853;50.848;4.108;2022-09-24T04:37:40;14.60;99.90
19435;DHT22;9853;50.848;4.108;2022-09-24T04:39:42;14.60;99.90
19435;DHT22;9853;50.848;4.108;2022-09-24T04:41:42;14.60;99.90
19435;DHT22;9853;50.848;4.108;2022-09-24T04:43:43;14.60;99.90
19435;DHT22;9853;50.848;4.108;2022-09-24T04:45:47;14.60;99.90
19435;DHT22;9853;50.848;4.108;2022-09-24T04:47:49;14.70;99.90
19435;DHT22;9853;50.848;4.108;2022-09-24T04:49:57;14.70;99.90
19435;DHT22;9853;50.848;4.108;2022-09-24T04:51:59;14.70;99.90
19435;DHT22;9853;50.848;4.108;2022-09-24T04:54:00;14.60;99.90
19435;DHT22;9853;50.848;4.108;2022-09-24T04:56:04;14.70;99.90
19435;DHT22;9853;50.848;4.108;2022-09-24T04:58:05;14.50;99.90
19435;DHT22;9853;50.848;4.108;2022-09-24T05:00:10;14.50;99.90
19435;DHT22;9853;50.848;4.108;2022-09-24T05:02:14;14.50;99.90
19435;DHT22;9853;50.848;4.108;2022-09-24T05:04:15;14.50;99.90
19435;DHT22;9853;50.848;4.108;2022-09-24T05:06:16;14.50;99.90
19435;DHT22;9853;50.848;4.108;2022-09-24T05:08:17;14.50;99.90
19435;DHT22;9853;50.848;4.108;2022-09-24T05:10:18;14.60;99.90
19435;DHT22;9853;50.848;4.108;2022-09-24T05:12:18;14.70;99.90
19435;DHT22;9853;50.848;4.108;2022-09-24T05:14:20;14.70;99.90
19435;DHT22;9853;50.848;4.108;2022-09-24T05:16:21;14.70;99.90
19435;DHT22;9853;50.848;4.108;2022-09-24T05:18:21;14.70;99.90
19435;DHT22;9853;50.848;4.108;2022-09-24T05:20:22;14.70;99.90
19435;DHT22;9853;50.848;4.108;2022-09-24T05:22:24;14.70;99.90
19435;DHT22;9853;50.848;4.108;2022-09-24T05:24:26;14.70;99.90
19435;DHT22;9853;50.848;4.108;2022-09-24T05:26:27;14.70;99.90
19435;DHT22;9853;50.848;4.108;2022-09-24T05:28:46;14.70;99.90
19435;DHT22;9853;50.848;4.108;2022-09-24T05:30:47;14.70;99.90
19435;DHT22;9853;50.848;4.108;2022-09-24T05:32:48;14.70;99.90
19435;DHT22;9853;50.848;4.108;2022-09-24T05:34:51;14.80;99.90
19435;DHT22;9853;50.848;4.108;2022-09-24T05:36:53;14.70;99.90
19435;DHT22;9853;50.848;4.108;2022-09-24T05:38:54;14.70;99.90
19435;DHT22;9853;50.848;4.108;2022-09-24T05:40:55;14.60;99.90
19435;DHT22;9853;50.848;4.108;2022-09-24T05:42:59;14.70;99.90
19435;DHT22;9853;50.848;4.108;2022-09-24T05:45:01;14.70;99.90
19435;DHT22;9853;50.848;4.108;2022-09-24T05:47:01;14.70;99.90
19435;DHT22;9853;50.848;4.108;2022-09-24T05:49:03;14.80;99.90
19435;DHT22;9853;50.848;4.108;2022-09-24T05:51:03;14.80;99.90
19435;DHT22;9853;50.848;4.108;2022-09-24T05:53:05;14.70;99.90
19435;DHT22;9853;50.848;4.108;2022-09-24T05:55:07;14.80;99.90
19435;DHT22;9853;50.848;4.108;2022-09-24T05:57:08;14.70;99.90
19435;DHT22;9853;50.848;4.108;2022-09-24T05:59:09;14.70;99.90
19435;DHT22;9853;50.848;4.108;2022-09-24T06:01:10;14.70;99.90
19435;DHT22;9853;50.848;4.108;2022-09-24T06:03:12;14.70;99.90
19435;DHT22;9853;50.848;4.108;2022-09-24T06:05:14;14.70;99.90
19435;DHT22;9853;50.848;4.108;2022-09-24T06:07:14;14.70;99.90
19435;DHT22;9853;50.848;4.108;2022-09-24T06:09:15;14.70;99.90
19435;DHT22;9853;50.848;4.108;2022-09-24T06:11:16;14.70;99.90
19435;DHT22;9853;50.848;4.108;2022-09-24T06:13:18;14.70;99.90
19435;DHT22;9853;50.848;4.108;2022-09-24T06:15:22;14.70;99.90
19435;DHT22;9853;50.848;4.108;2022-09-24T06:17:24;14.70;99.90
19435;DHT22;9853;50.848;4.108;2022-09-24T06:19:25;14.70;99.90
19435;DHT22;9853;50.848;4.108;2022-09-24T06:21:26;14.80;99.90
19435;DHT22;9853;50.848;4.108;2022-09-24T06:23:26;14.80;99.90
19435;DHT22;9853;50.848;4.108;2022-09-24T06:25:28;14.80;99.90
19435;DHT22;9853;50.848;4.108;2022-09-24T06:27:29;14.80;99.90
19435;DHT22;9853;50.848;4.108;2022-09-24T06:29:30;14.80;99.90
19435;DHT22;9853;50.848;4.108;2022-09-24T06:31:31;14.70;99.90
19435;DHT22;9853;50.848;4.108;2022-09-24T06:33:31;14.80;99.90
19435;DHT22;9853;50.848;4.108;2022-09-24T06:35:36;14.80;99.90
19435;DHT22;9853;50.848;4.108;2022-09-24T06:37:36;14.80;99.90
19435;DHT22;9853;50.848;4.108;2022-09-24T06:39:37;14.80;99.90
19435;DHT22;9853;50.848;4.108;2022-09-24T06:41:38;14.90;99.90
19435;DHT22;9853;50.848;4.108;2022-09-24T06:43:38;14.90;99.90
19435;DHT22;9853;50.848;4.108;2022-09-24T06:45:40;14.90;99.90
19435;DHT22;9853;50.848;4.108;2022-09-24T06:47:42;14.90;99.90
19435;DHT22;9853;50.848;4.108;2022-09-24T06:49:43;15.00;99.90
19435;DHT22;9853;50.848;4.108;2022-09-24T06:51:43;14.90;99.90
19435;DHT22;9853;50.848;4.108;2022-09-24T06:53:45;14.90;99.90
19435;DHT22;9853;50.848;4.108;2022-09-24T06:55:45;15.00;99.90
19435;DHT22;9853;50.848;4.108;2022-09-24T06:57:46;15.00;99.90
19435;DHT22;9853;50.848;4.108;2022-09-24T06:59:47;15.10;99.90
19435;DHT22;9853;50.848;4.108;2022-09-24T07:01:48;15.10;99.90
19435;DHT22;9853;50.848;4.108;2022-09-24T07:03:48;15.20;99.90
19435;DHT22;9853;50.848;4.108;2022-09-24T07:05:49;15.30;99.90
19435;DHT22;9853;50.848;4.108;2022-09-24T07:07:50;15.30;99.90
19435;DHT22;9853;50.848;4.108;2022-09-24T07:09:51;15.20;99.90
19435;DHT22;9853;50.848;4.108;2022-09-24T07:11:51;15.30;99.90
19435;DHT22;9853;50.848;4.108;2022-09-24T07:13:52;15.20;99.90
19435;DHT22;9853;50.848;4.108;2022-09-24T07:15:52;15.30;99.90
19435;DHT22;9853;50.848;4.108;2022-09-24T07:17:55;15.30;99.90
19435;DHT22;9853;50.848;4.108;2022-09-24T07:19:55;15.30;99.90
19435;DHT22;9853;50.848;4.108;2022-09-24T07:21:56;15.50;99.90
19435;DHT22;9853;50.848;4.108;2022-09-24T07:23:57;15.60;99.90
19435;DHT22;9853;50.848;4.108;2022-09-24T07:25:57;15.60;99.90
19435;DHT22;9853;50.848;4.108;2022-09-24T07:28:07;15.60;99.90
19435;DHT22;9853;50.848;4.108;2022-09-24T07:30:08;15.80;99.90
19435;DHT22;9853;50.848;4.108;2022-09-24T07:32:09;15.80;99.90
19435;DHT22;9853;50.848;4.108;2022-09-24T07:34:10;15.80;99.90
19435;DHT22;9853;50.848;4.108;2022-09-24T07:36:10;15.80;99.90
19435;DHT22;9853;50.848;4.108;2022-09-24T07:38:11;15.90;99.90
19435;DHT22;9853;50.848;4.108;2022-09-24T07:40:12;15.90;99.90
19435;DHT22;9853;50.848;4.108;2022-09-24T07:42:12;15.70;99.90
19435;DHT22;9853;50.848;4.108;2022-09-24T07:44:13;15.60;99.90
19435;DHT22;9853;50.848;4.108;2022-09-24T07:46:14;15.60;99.90
19435;DHT22;9853;50.848;4.108;2022-09-24T07:48:15;15.40;99.90
19435;DHT22;9853;50.848;4.108;2022-09-24T07:50:16;15.40;99.90
19435;DHT22;9853;50.848;4.108;2022-09-24T07:52:17;15.40;99.90
19435;DHT22;9853;50.848;4.108;2022-09-24T07:54:18;15.30;99.90
19435;DHT22;9853;50.848;4.108;2022-09-24T07:56:19;15.20;99.90
19435;DHT22;9853;50.848;4.108;2022-09-24T07:58:20;15.20;99.90
19435;DHT22;9853;50.848;4.108;2022-09-24T08:00:22;15.20;99.90
19435;DHT22;9853;50.848;4.108;2022-09-24T08:02:24;15.10;99.90
19435;DHT22;9853;50.848;4.108;2022-09-24T08:04:24;15.10;99.90
19435;DHT22;9853;50.848;4.108;2022-09-24T08:06:25;15.00;99.90
19435;DHT22;9853;50.848;4.108;2022-09-24T08:08:26;15.00;99.90
19435;DHT22;9853;50.848;4.108;2022-09-24T08:10:27;15.00;99.90
19435;DHT22;9853;50.848;4.108;2022-09-24T08:12:28;14.90;99.90
19435;DHT22;9853;50.848;4.108;2022-09-24T08:14:29;15.10;99.90
19435;DHT22;9853;50.848;4.108;2022-09-24T08:16:29;15.00;99.90
19435;DHT22;9853;50.848;4.108;2022-09-24T08:18:31;15.10;99.90
19435;DHT22;9853;50.848;4.108;2022-09-24T08:20:32;15.10;99.90
19435;DHT22;9853;50.848;4.108;2022-09-24T08:22:33;15.00;99.90
19435;DHT22;9853;50.848;4.108;2022-09-24T08:24:35;15.00;99.90
19435;DHT22;9853;50.848;4.108;2022-09-24T08:26:36;15.00;99.90
19435;DHT22;9853;50.848;4.108;2022-09-24T08:28:37;15.10;99.90
19435;DHT22;9853;50.848;4.108;2022-09-24T08:30:38;14.90;99.90
19435;DHT22;9853;50.848;4.108;2022-09-24T08:32:39;14.90;99.90
19435;DHT22;9853;50.848;4.108;2022-09-24T08:34:45;14.90;99.90
19435;DHT22;9853;50.848;4.108;2022-09-24T08:36:46;14.70;99.90
19435;DHT22;9853;50.848;4.108;2022-09-24T08:38:46;14.70;99.90
19435;DHT22;9853;50.848;4.108;2022-09-24T08:43:13;14.70;99.90
19435;DHT22;9853;50.848;4.108;2022-09-24T08:45:16;14.60;99.90
19435;DHT22;9853;50.848;4.108;2022-09-24T08:49:50;14.70;99.90
19435;DHT22;9853;50.848;4.108;2022-09-24T08:54:16;14.80;99.90
19435;DHT22;9853;50.848;4.108;2022-09-24T08:56:20;14.80;99.90
19435;DHT22;9853;50.848;4.108;2022-09-24T09:00:39;14.90;99.90
19435;DHT22;9853;50.848;4.108;2022-09-24T09:02:52;14.90;99.90
19435;DHT22;9853;50.848;4.108;2022-09-24T09:07:09;15.00;99.90
19435;DHT22;9853;50.848;4.108;2022-09-24T09:09:23;15.10;99.90
19435;DHT22;9853;50.848;4.108;2022-09-24T09:11:29;15.20;99.90
19435;DHT22;9853;50.848;4.108;2022-09-24T09:15:42;15.20;99.90
19435;DHT22;9853;50.848;4.108;2022-09-24T09:18:06;15.40;99.90
19435;DHT22;9853;50.848;4.108;2022-09-24T09:20:43;15.40;99.90
19435;DHT22;9853;50.848;4.108;2022-09-24T09:22:49;15.40;99.90
19435;DHT22;9853;50.848;4.108;2022-09-24T09:24:52;15.50;99.90
19435;DHT22;9853;50.848;4.108;2022-09-24T09:26:54;15.50;99.90
19435;DHT22;9853;50.848;4.108;2022-09-24T09:28:58;15.60;99.90
19435;DHT22;9853;50.848;4.108;2022-09-24T09:35:41;15.70;99.90
19435;DHT22;9853;50.848;4.108;2022-09-24T09:37:56;15.70;99.90
19435;DHT22;9853;50.848;4.108;2022-09-24T09:42:38;15.90;99.90
19435;DHT22;9853;50.848;4.108;2022-09-24T09:44:43;16.10;99.90
19435;DHT22;9853;50.848;4.108;2022-09-24T09:49:07;16.20;99.90
19435;DHT22;9853;50.848;4.108;2022-09-24T09:51:20;16.10;99.90
19435;DHT22;9853;50.848;4.108;2022-09-24T09:53:26;16.20;99.90
19435;DHT22;9853;50.848;4.108;2022-09-24T09:55:33;16.20;99.90
19435;DHT22;9853;50.848;4.108;2022-09-24T09:57:35;16.30;99.90
19435;DHT22;9853;50.848;4.108;2022-09-24T09:59:37;16.40;99.90
19435;DHT22;9853;50.848;4.108;2022-09-24T10:01:42;16.40;99.90
19435;DHT22;9853;50.848;4.108;2022-09-24T10:06:03;16.20;99.90
19435;DHT22;9853;50.848;4.108;2022-09-24T10:08:04;16.20;99.90
19435;DHT22;9853;50.848;4.108;2022-09-24T10:10:18;16.10;99.90
19435;DHT22;9853;50.848;4.108;2022-09-24T10:12:21;16.10;99.90
19435;DHT22;9853;50.848;4.108;2022-09-24T10:14:23;15.80;99.90
19435;DHT22;9853;50.848;4.108;2022-09-24T10:16:24;15.80;99.90
19435;DHT22;9853;50.848;4.108;2022-09-24T10:18:37;15.80;99.90
19435;DHT22;9853;50.848;4.108;2022-09-24T10:20:45;15.70;99.90
19435;DHT22;9853;50.848;4.108;2022-09-24T10:23:07;15.80;99.90
19435;DHT22;9853;50.848;4.108;2022-09-24T10:25:21;15.80;99.90
19435;DHT22;9853;50.848;4.108;2022-09-24T10:27:36;15.90;99.90
19435;DHT22;9853;50.848;4.108;2022-09-24T10:29:37;16.00;99.90
19435;DHT22;9853;50.848;4.108;2022-09-24T10:31:57;15.90;99.90
19435;DHT22;9853;50.848;4.108;2022-09-24T10:33:59;16.00;99.90
19435;DHT22;9853;50.848;4.108;2022-09-24T10:36:16;16.00;99.90
19435;DHT22;9853;50.848;4.108;2022-09-24T10:38:21;16.00;99.90
19435;DHT22;9853;50.848;4.108;2022-09-24T10:40:29;16.00;99.90
19435;DHT22;9853;50.848;4.108;2022-09-24T10:42:30;16.10;99.90
19435;DHT22;9853;50.848;4.108;2022-09-24T10:44:37;16.10;99.90
19435;DHT22;9853;50.848;4.108;2022-09-24T10:46:49;16.20;99.90
19435;DHT22;9853;50.848;4.108;2022-09-24T10:48:55;16.30;99.90
19435;DHT22;9853;50.848;4.108;2022-09-24T10:53:38;16.40;99.90
19435;DHT22;9853;50.848;4.108;2022-09-24T10:56:12;16.30;99.90
19435;DHT22;9853;50.848;4.108;2022-09-24T10:58:36;16.10;99.90
19435;DHT22;9853;50.848;4.108;2022-09-24T11:05:23;16.50;99.90
19435;DHT22;9853;50.848;4.108;2022-09-24T11:09:54;16.60;99.90
19435;DHT22;9853;50.848;4.108;2022-09-24T11:12:05;16.60;99.90
19435;DHT22;9853;50.848;4.108;2022-09-24T11:14:15;16.40;99.90
19435;DHT22;9853;50.848;4.108;2022-09-24T11:16:29;16.40;99.90
19435;DHT22;9853;50.848;4.108;2022-09-24T11:26:21;16.20;99.90
19435;DHT22;9853;50.848;4.108;2022-09-24T11:28:38;16.20;99.90
19435;DHT22;9853;50.848;4.108;2022-09-24T11:33:31;16.40;99.90
19435;DHT22;9853;50.848;4.108;2022-09-24T11:35:51;16.60;99.90
19435;DHT22;9853;50.848;4.108;2022-09-24T11:37:57;16.80;99.90
19435;DHT22;9853;50.848;4.108;2022-09-24T11:54:24;16.90;99.90
19435;DHT22;9853;50.848;4.108;2022-09-24T11:56:34;16.70;99.90
19435;DHT22;9853;50.848;4.108;2022-09-24T11:58:47;16.60;99.90
19435;DHT22;9853;50.848;4.108;2022-09-24T12:00:58;16.90;99.90
19435;DHT22;9853;50.848;4.108;2022-09-24T12:03:11;16.90;99.90
19435;DHT22;9853;50.848;4.108;2022-09-24T12:12:36;17.10;99.90
19435;DHT22;9853;50.848;4.108;2022-09-24T12:14:58;17.10;99.90
19435;DHT22;9853;50.848;4.108;2022-09-24T12:17:06;17.20;99.90
19435;DHT22;9853;50.848;4.108;2022-09-24T12:19:16;17.40;99.90
19435;DHT22;9853;50.848;4.108;2022-09-24T12:21:35;17.60;99.90
19435;DHT22;9853;50.848;4.108;2022-09-24T12:23:42;17.60;99.90
19435;DHT22;9853;50.848;4.108;2022-09-24T12:25:46;17.60;99.90
19435;DHT22;9853;50.848;4.108;2022-09-24T12:27:49;17.50;99.90
19435;DHT22;9853;50.848;4.108;2022-09-24T12:35:04;17.50;99.90
19435;DHT22;9853;50.848;4.108;2022-09-24T12:37:13;17.40;99.90
19435;DHT22;9853;50.848;4.108;2022-09-24T12:39:16;17.30;99.90
19435;DHT22;9853;50.848;4.108;2022-09-24T12:41:40;17.30;99.90
19435;DHT22;9853;50.848;4.108;2022-09-24T12:46:26;17.20;99.90
19435;DHT22;9853;50.848;4.108;2022-09-24T12:48:31;17.10;99.90
19435;DHT22;9853;50.848;4.108;2022-09-24T12:50:36;17.40;99.90
19435;DHT22;9853;50.848;4.108;2022-09-24T12:52:40;17.40;99.90
19435;DHT22;9853;50.848;4.108;2022-09-24T12:54:42;16.90;99.90
19435;DHT22;9853;50.848;4.108;2022-09-24T12:56:43;16.50;99.90
19435;DHT22;9853;50.848;4.108;2022-09-24T12:58:44;16.40;99.90
19435;DHT22;9853;50.848;4.108;2022-09-24T13:00:45;16.20;99.90
19435;DHT22;9853;50.848;4.108;2022-09-24T13:02:46;16.10;99.90
19435;DHT22;9853;50.848;4.108;2022-09-24T13:09:37;16.00;99.90
19435;DHT22;9853;50.848;4.108;2022-09-24T13:11:39;16.00;99.90
19435;DHT22;9853;50.848;4.108;2022-09-24T13:13:39;15.80;99.90
19435;DHT22;9853;50.848;4.108;2022-09-24T13:15:43;15.60;99.90
19435;DHT22;9853;50.848;4.108;2022-09-24T13:17:44;15.60;99.90
19435;DHT22;9853;50.848;4.108;2022-09-24T13:19:48;15.70;99.90
19435;DHT22;9853;50.848;4.108;2022-09-24T13:21:57;15.60;99.90
19435;DHT22;9853;50.848;4.108;2022-09-24T13:24:09;15.80;99.90
19435;DHT22;9853;50.848;4.108;2022-09-24T13:32:33;16.00;99.90
19435;DHT22;9853;50.848;4.108;2022-09-24T13:34:36;15.90;99.90
19435;DHT22;9853;50.848;4.108;2022-09-24T13:37:01;16.00;99.90
19435;DHT22;9853;50.848;4.108;2022-09-24T13:39:35;16.00;99.90
19435;DHT22;9853;50.848;4.108;2022-09-24T13:41:56;16.00;99.90
19435;DHT22;9853;50.848;4.108;2022-09-24T13:44:03;15.90;99.90
19435;DHT22;9853;50.848;4.108;2022-09-24T13:46:09;16.10;99.90
19435;DHT22;9853;50.848;4.108;2022-09-24T13:49:05;16.20;99.90
19435;DHT22;9853;50.848;4.108;2022-09-24T13:50:45;16.10;99.90
19435;DHT22;9853;50.848;4.108;2022-09-24T13:53:01;15.90;99.90
19435;DHT22;9853;50.848;4.108;2022-09-24T13:55:21;15.90;99.90
19435;DHT22;9853;50.848;4.108;2022-09-24T13:57:25;16.10;99.90
19435;DHT22;9853;50.848;4.108;2022-09-24T13:59:27;16.10;99.90
19435;DHT22;9853;50.848;4.108;2022-09-24T14:01:29;16.20;99.90
19435;DHT22;9853;50.848;4.108;2022-09-24T14:03:35;16.10;99.90
19435;DHT22;9853;50.848;4.108;2022-09-24T14:05:36;16.00;99.90
19435;DHT22;9853;50.848;4.108;2022-09-24T14:07:39;15.80;99.90
19435;DHT22;9853;50.848;4.108;2022-09-24T14:09:40;15.80;99.90
19435;DHT22;9853;50.848;4.108;2022-09-24T14:11:51;15.90;99.90
19435;DHT22;9853;50.848;4.108;2022-09-24T14:13:53;16.00;99.90
19435;DHT22;9853;50.848;4.108;2022-09-24T14:15:58;16.10;99.90
19435;DHT22;9853;50.848;4.108;2022-09-24T14:17:59;16.10;99.90
19435;DHT22;9853;50.848;4.108;2022-09-24T14:19:59;16.10;99.90
19435;DHT22;9853;50.848;4.108;2022-09-24T14:22:03;16.00;99.90
19435;DHT22;9853;50.848;4.108;2022-09-24T14:24:06;16.00;99.90
19435;DHT22;9853;50.848;4.108;2022-09-24T14:26:34;15.70;99.90
19435;DHT22;9853;50.848;4.108;2022-09-24T14:28:36;15.50;99.90
19435;DHT22;9853;50.848;4.108;2022-09-24T14:30:39;15.60;99.90
19435;DHT22;9853;50.848;4.108;2022-09-24T14:33:00;15.60;99.90
19435;DHT22;9853;50.848;4.108;2022-09-24T14:37:11;15.50;99.90
19435;DHT22;9853;50.848;4.108;2022-09-24T14:39:16;15.50;99.90
19435;DHT22;9853;50.848;4.108;2022-09-24T14:41:27;15.40;99.90
19435;DHT22;9853;50.848;4.108;2022-09-24T14:43:36;15.70;99.90
19435;DHT22;9853;50.848;4.108;2022-09-24T14:45:37;15.70;99.90
19435;DHT22;9853;50.848;4.108;2022-09-24T14:47:38;15.80;99.90
19435;DHT22;9853;50.848;4.108;2022-09-24T14:49:43;15.70;99.90
19435;DHT22;9853;50.848;4.108;2022-09-24T14:51:55;15.70;99.90
19435;DHT22;9853;50.848;4.108;2022-09-24T14:56:32;15.60;99.90
19435;DHT22;9853;50.848;4.108;2022-09-24T14:58:34;15.60;99.90
19435;DHT22;9853;50.848;4.108;2022-09-24T15:00:51;15.70;99.90
19435;DHT22;9853;50.848;4.108;2022-09-24T15:02:57;15.70;99.90